Time;durP1;ratioP1;P1;durP2;ratioP2;P2;SDS_P1;SDS_P2;PMS_P1;PMS_P2;Temp;Humidity;BMP_temperature;BMP_pressure;BME280_temperature;BME280_humidity;BME280_pressure;Samples;Min_cycle;Max_cycle;Signal;HPM_P1;HPM_P2
2021/01/27 00:01:42;;;;;;;5.30;2.10;;;6.20;81.40;;;;;;5016216;28;20037;-49
2021/01/27 00:04:07;;;;;;;4.45;1.45;;;6.20;81.40;;;;;;5016677;28;20193;-49
2021/01/27 00:06:33;;;;;;;2.83;1.88;;;6.20;81.40;;;;;;5028999;28;20462;-49
2021/01/27 00:08:59;;;;;;;4.82;2.17;;;6.20;81.40;;;;;;5036570;28;20022;-48
2021/01/27 00:11:24;;;;;;;4.45;1.85;;;6.20;81.40;;;;;;5036530;28;20421;-49
2021/01/27 00:13:50;;;;;;;3.67;2.00;;;6.20;81.40;;;;;;5036337;28;20451;-49
2021/01/27 00:16:16;;;;;;;2.13;1.52;;;6.20;81.40;;;;;;5034968;28;20080;-49
2021/01/27 00:18:41;;;;;;;3.42;1.98;;;6.20;81.40;;;;;;5036503;28;20459;-49
2021/01/27 00:21:07;;;;;;;3.33;1.60;;;6.20;81.40;;;;;;5036569;28;20355;-49
2021/01/27 00:23:33;;;;;;;4.38;2.20;;;6.20;81.30;;;;;;5035264;28;20091;-49
2021/01/27 00:25:58;;;;;;;4.07;1.70;;;6.20;81.40;;;;;;5016559;28;20359;-49
2021/01/27 00:28:24;;;;;;;5.50;2.28;;;6.20;81.40;;;;;;5017819;28;20068;-49
2021/01/27 00:30:49;;;;;;;4.93;2.17;;;6.20;81.30;;;;;;5016385;28;20030;-49
2021/01/27 00:33:16;;;;;;;9.73;2.60;;;6.20;81.40;;;;;;5034732;28;20025;-49
2021/01/27 00:35:47;;;;;;;10.07;3.08;;;6.20;81.30;;;;;;5036064;28;20049;-49
2021/01/27 00:38:20;;;;;;;7.50;3.53;;;6.20;81.30;;;;;;5022145;28;20337;-49
2021/01/27 00:40:47;;;;;;;16.42;4.85;;;6.20;81.30;;;;;;5030936;28;20443;-49
2021/01/27 00:43:13;;;;;;;16.50;4.28;;;6.20;81.30;;;;;;5035772;28;20029;-49
2021/01/27 00:45:39;;;;;;;13.68;3.95;;;6.10;81.20;;;;;;5036276;28;20033;-49
2021/01/27 00:48:06;;;;;;;16.05;3.17;;;6.20;81.20;;;;;;5034639;28;20067;-49
2021/01/27 00:50:31;;;;;;;5.50;3.03;;;6.10;81.20;;;;;;5035977;28;20491;-49
2021/01/27 00:52:57;;;;;;;9.63;3.20;;;6.10;81.20;;;;;;5021194;28;20117;-48
2021/01/27 00:55:26;;;;;;;5.22;2.20;;;6.20;81.30;;;;;;5015788;28;20054;-48
2021/01/27 00:57:52;;;;;;;10.00;2.80;;;6.10;81.20;;;;;;5016905;28;20030;-49
2021/01/27 01:00:20;;;;;;;11.10;3.50;;;6.20;81.20;;;;;;5016030;28;20448;-49
2021/01/27 01:02:46;;;;;;;15.00;4.43;;;6.10;81.20;;;;;;5025328;28;20057;-49
2021/01/27 01:05:15;;;;;;;12.00;3.90;;;6.10;81.20;;;;;;5033853;28;20068;-49
2021/01/27 01:07:46;;;;;;;15.15;3.95;;;6.10;81.30;;;;;;5015708;28;20026;-49
2021/01/27 01:10:22;;;;;;;8.60;3.15;;;6.10;81.30;;;;;;5029253;28;20129;-49
2021/01/27 01:12:48;;;;;;;13.90;3.33;;;6.10;81.20;;;;;;5035015;28;20030;-49
2021/01/27 01:15:15;;;;;;;10.15;2.72;;;6.10;81.20;;;;;;5035647;28;20156;-49
2021/01/27 01:17:41;;;;;;;9.43;2.35;;;6.10;81.20;;;;;;5035495;28;20055;-48
2021/01/27 01:20:13;;;;;;;11.50;3.03;;;6.10;81.20;;;;;;5033603;28;20021;-48
2021/01/27 01:22:43;;;;;;;13.65;3.20;;;6.10;81.30;;;;;;5035011;28;20348;-49
2021/01/27 01:25:10;;;;;;;12.48;3.25;;;6.00;81.20;;;;;;5035034;28;20049;-49
2021/01/27 01:27:35;;;;;;;6.03;2.60;;;6.10;81.30;;;;;;5035423;28;20113;-49
2021/01/27 01:30:04;;;;;;;5.13;2.45;;;6.00;81.20;;;;;;5033510;28;20064;-49
2021/01/27 01:32:30;;;;;;;6.13;2.38;;;6.00;81.20;;;;;;5034837;28;20057;-48
2021/01/27 01:34:55;;;;;;;7.03;2.40;;;6.00;81.20;;;;;;5016904;28;20061;-49
2021/01/27 01:37:21;;;;;;;8.10;2.53;;;6.00;81.30;;;;;;5015064;28;20483;-49
2021/01/27 01:39:47;;;;;;;4.90;2.08;;;6.00;81.20;;;;;;5015519;28;20067;-49
2021/01/27 01:42:17;;;;;;;5.72;3.03;;;6.00;81.30;;;;;;5020005;28;20449;-49
2021/01/27 01:44:43;;;;;;;6.00;2.60;;;6.00;81.30;;;;;;5034196;28;20041;-49
2021/01/27 01:47:08;;;;;;;11.40;3.47;;;6.00;81.40;;;;;;5033387;28;20032;-49
2021/01/27 01:49:34;;;;;;;11.43;3.00;;;6.00;81.40;;;;;;5014798;28;20045;-49
2021/01/27 01:52:01;;;;;;;8.73;2.60;;;6.00;81.40;;;;;;5016264;28;20025;-48
2021/01/27 01:54:30;;;;;;;5.50;2.30;;;6.00;81.40;;;;;;5014767;28;20447;-48
2021/01/27 01:56:59;;;;;;;2.88;1.88;;;5.90;81.30;;;;;;5015386;28;20022;-49
2021/01/27 01:59:29;;;;;;;3.72;2.40;;;5.90;81.40;;;;;;5016853;28;20053;-49
2021/01/27 02:02:01;;;;;;;3.97;2.38;;;5.90;81.30;;;;;;5039137;28;20390;-49
2021/01/27 02:04:32;;;;;;;4.20;1.95;;;5.90;81.30;;;;;;5023293;28;20056;-48
2021/01/27 02:06:58;;;;;;;2.53;1.85;;;6.00;81.40;;;;;;5018042;28;20103;-48
2021/01/27 02:09:24;;;;;;;3.75;2.05;;;5.90;81.30;;;;;;5014990;28;20033;-49
2021/01/27 02:12:02;;;;;;;3.03;1.70;;;6.00;82.10;;;;;;5014632;28;20351;-49
2021/01/27 02:14:34;;;;;;;4.63;2.45;;;5.90;81.30;;;;;;5015391;28;20045;-49
2021/01/27 02:17:06;;;;;;;6.05;1.83;;;5.90;81.30;;;;;;5014412;28;20030;-49
2021/01/27 02:20:03;;;;;;;8.65;2.58;;;5.90;81.40;;;;;;5014983;28;20033;-49
2021/01/27 02:22:41;;;;;;;7.55;2.72;;;5.90;81.40;;;;;;5014352;28;20029;-49
2021/01/27 02:25:44;;;;;;;4.30;2.53;;;5.90;81.40;;;;;;5015167;28;20136;-49
2021/01/27 02:28:34;;;;;;;7.03;3.47;;;5.90;81.40;;;;;;5014252;28;20025;-49
2021/01/27 02:31:18;;;;;;;6.88;3.42;;;5.90;81.40;;;;;;5013932;28;20133;-49
2021/01/27 02:34:04;;;;;;;8.73;3.58;;;5.90;81.30;;;;;;5033512;28;20022;-48
2021/01/27 02:36:40;;;;;;;6.50;2.67;;;5.90;81.20;;;;;;5052809;28;20026;-49
2021/01/27 02:39:21;;;;;;;7.28;2.90;;;5.90;81.20;;;;;;5017006;28;20116;-49
2021/01/27 02:41:56;;;;;;;;;;;5.90;81.30;;;;;;5019022;28;20075;-49
2021/01/27 02:44:30;;;;;;;7.47;2.38;;;5.90;81.20;;;;;;5022067;28;19960;-49
2021/01/27 02:47:00;;;;;;;4.40;2.47;;;5.80;81.20;;;;;;5013705;28;20022;-49
2021/01/27 02:49:35;;;;;;;5.85;2.60;;;5.90;81.30;;;;;;5014258;28;20076;-49
2021/01/27 02:52:07;;;;;;;7.90;2.80;;;5.90;81.20;;;;;;5013900;28;20030;-49
2021/01/27 02:54:41;;;;;;;4.30;2.30;;;5.80;81.30;;;;;;5013705;28;20034;-49
2021/01/27 02:57:35;;;;;;;4.13;2.08;;;5.80;81.30;;;;;;5031545;28;20025;-49
2021/01/27 03:00:06;;;;;;;4.90;2.47;;;5.80;81.30;;;;;;5034966;28;20038;-49
2021/01/27 03:02:41;;;;;;;5.60;2.30;;;5.80;81.30;;;;;;5033638;28;20025;-49
2021/01/27 03:05:31;;;;;;;4.13;2.53;;;5.80;81.20;;;;;;5032541;28;20041;-49
2021/01/27 03:08:02;;;;;;;;;;;5.80;81.20;;;;;;5032581;28;20029;-49
2021/01/27 03:10:33;;;;;;;5.30;2.20;;;5.80;81.20;;;;;;5033675;28;19905;-49
2021/01/27 03:12:59;;;;;;;3.33;2.50;;;5.80;81.30;;;;;;5033647;28;20444;-49
2021/01/27 03:15:24;;;;;;;3.25;2.33;;;5.80;81.30;;;;;;5025602;28;20460;-48
2021/01/27 03:17:56;;;;;;;6.60;2.65;;;5.80;81.20;;;;;;5014574;28;20409;-49
2021/01/27 03:20:32;;;;;;;4.22;2.70;;;5.80;81.30;;;;;;5013661;28;20062;-49
2021/01/27 03:23:27;;;;;;;8.70;2.60;;;5.80;81.30;;;;;;5013606;28;20072;-49
2021/01/27 03:26:08;;;;;;;4.07;2.67;;;5.80;81.30;;;;;;5013795;28;20414;-48
2021/01/27 03:28:40;;;;;;;6.05;2.33;;;5.80;81.30;;;;;;5014385;28;20025;-49
2021/01/27 03:31:06;;;;;;;4.32;2.75;;;5.80;81.30;;;;;;5019380;28;20035;-49
2021/01/27 03:34:10;;;;;;;7.05;3.03;;;5.80;81.20;;;;;;5032842;28;20026;-49
2021/01/27 03:36:45;;;;;;;5.53;2.75;;;5.80;81.20;;;;;;5010970;28;20033;-48
2021/01/27 03:39:14;;;;;;;5.80;2.80;;;5.80;81.30;;;;;;5021507;28;20159;-48
2021/01/27 03:41:48;;;;;;;8.40;2.85;;;5.80;81.30;;;;;;5030611;28;20116;-49
2021/01/27 03:44:18;;;;;;;3.70;2.70;;;5.80;81.20;;;;;;5030523;28;20041;-49
2021/01/27 03:46:43;;;;;;;6.40;2.83;;;5.80;81.20;;;;;;5030413;28;20482;-49
2021/01/27 03:49:17;;;;;;;3.83;2.50;;;5.80;81.20;;;;;;5029111;28;20059;-49
2021/01/27 03:51:52;;;;;;;3.33;2.17;;;5.80;81.30;;;;;;5030525;28;20041;-49
2021/01/27 03:54:19;;;;;;;5.47;3.28;;;5.80;81.20;;;;;;5030576;28;20017;-49
2021/01/27 03:56:53;;;;;;;10.20;3.08;;;5.80;81.20;;;;;;5030551;28;20467;-49
2021/01/27 03:59:19;;;;;;;4.53;2.83;;;5.80;81.20;;;;;;5028830;28;20038;-49
2021/01/27 04:01:50;;;;;;;4.93;2.63;;;5.80;81.20;;;;;;5022001;28;20031;-49
2021/01/27 04:04:16;;;;;;;10.32;2.45;;;5.80;81.20;;;;;;5027881;28;20053;-48
2021/01/27 04:06:42;;;;;;;5.10;2.60;;;5.80;81.20;;;;;;5030424;28;20402;-49
2021/01/27 04:09:08;;;;;;;9.05;2.90;;;5.80;81.20;;;;;;5030425;28;20029;-48
2021/01/27 04:11:34;;;;;;;5.10;2.60;;;5.80;81.20;;;;;;5032436;28;20128;-49
2021/01/27 04:14:00;;;;;;;8.43;3.00;;;5.80;81.30;;;;;;5022931;28;20108;-49
2021/01/27 04:16:26;;;;;;;5.95;2.50;;;5.80;81.30;;;;;;5013246;28;20487;-49
2021/01/27 04:18:51;;;;;;;9.65;2.60;;;5.80;81.30;;;;;;5013023;28;20033;-49
2021/01/27 04:21:17;;;;;;;5.55;2.95;;;5.70;81.10;;;;;;5013008;28;20029;-49
2021/01/27 04:23:42;;;;;;;7.40;3.00;;;5.80;81.20;;;;;;5013819;28;20048;-49
2021/01/27 04:26:08;;;;;;;4.35;2.63;;;5.80;81.20;;;;;;5012843;28;20410;-49
2021/01/27 04:28:34;;;;;;;5.15;2.60;;;5.80;81.20;;;;;;5013724;28;20084;-49
2021/01/27 04:30:59;;;;;;;3.83;2.40;;;5.80;81.10;;;;;;5032519;28;20064;-49
2021/01/27 04:33:26;;;;;;;10.85;2.80;;;5.80;81.10;;;;;;5032134;28;20037;-49
2021/01/27 04:35:52;;;;;;;3.58;2.70;;;5.80;81.10;;;;;;5018211;28;20546;-49
2021/01/27 04:38:18;;;;;;;7.88;3.47;;;5.80;81.10;;;;;;5012867;28;20085;-49
2021/01/27 04:40:46;;;;;;;10.52;2.90;;;5.80;81.10;;;;;;5030622;28;20092;-49
2021/01/27 04:43:28;;;;;;;4.13;2.97;;;5.80;81.10;;;;;;5032398;28;20178;-49
2021/01/27 04:46:35;;;;;;;4.85;2.42;;;5.80;81.10;;;;;;5031027;28;20041;-49
2021/01/27 04:49:06;;;;;;;6.95;2.80;;;5.80;81.10;;;;;;5068935;28;20025;-49
2021/01/27 04:51:36;;;;;;;5.38;2.63;;;5.80;81.00;;;;;;5053566;28;20037;-49
2021/01/27 04:54:20;;;;;;;5.45;2.72;;;5.80;81.00;;;;;;5053332;28;20072;-49
2021/01/27 04:57:12;;;;;;;5.70;2.90;;;5.80;81.10;;;;;;5054399;28;20029;-49
2021/01/27 05:00:01;;;;;;;3.85;2.45;;;5.80;81.10;;;;;;5053226;28;20091;-49
2021/01/27 05:02:38;;;;;;;4.05;2.75;;;5.80;81.00;;;;;;5053385;28;20051;-49
2021/01/27 05:05:04;;;;;;;5.65;2.45;;;5.80;81.00;;;;;;5053383;28;20043;-49
2021/01/27 05:07:42;;;;;;;7.40;2.30;;;5.80;81.00;;;;;;5061558;28;20107;-49
2021/01/27 05:10:09;;;;;;;3.50;2.35;;;5.80;81.00;;;;;;5053211;28;20025;-49
2021/01/27 05:13:19;;;;;;;6.55;3.10;;;5.90;81.00;;;;;;5052655;28;20044;-49
2021/01/27 05:15:45;;;;;;;11.48;3.33;;;5.90;81.00;;;;;;5053004;28;20033;-49
2021/01/27 05:18:13;;;;;;;5.43;2.95;;;5.90;80.90;;;;;;5054047;28;20025;-50
2021/01/27 05:20:38;;;;;;;4.35;2.50;;;5.80;80.90;;;;;;5053021;28;20025;-49
2021/01/27 05:23:04;;;;;;;7.00;3.00;;;5.90;80.90;;;;;;5052853;28;20064;-49
2021/01/27 05:25:48;;;;;;;9.18;3.20;;;5.90;80.90;;;;;;5040792;28;20057;-49
2021/01/27 05:28:22;;;;;;;4.13;2.28;;;5.90;80.80;;;;;;5027088;28;20029;-49
2021/01/27 05:30:53;;;;;;;7.63;2.60;;;5.90;81.60;;;;;;5029361;28;20379;-50
2021/01/27 05:33:19;;;;;;;4.03;2.40;;;5.80;80.90;;;;;;5027423;28;20116;-50
2021/01/27 05:35:46;;;;;;;4.53;2.85;;;5.80;80.80;;;;;;5017665;28;20566;-50
2021/01/27 05:38:27;;;;;;;4.30;2.60;;;5.90;80.90;;;;;;5018335;28;20399;-50
2021/01/27 05:41:06;;;;;;;5.47;2.97;;;5.90;80.80;;;;;;5030909;28;20025;-50
2021/01/27 05:43:33;;;;;;;6.10;2.70;;;5.90;80.80;;;;;;5030250;28;20181;-49
2021/01/27 05:46:17;;;;;;;7.18;3.03;;;5.90;80.80;;;;;;5029835;28;20062;-50
2021/01/27 05:48:46;;;;;;;10.43;3.22;;;5.90;80.80;;;;;;5016829;28;20026;-49
2021/01/27 05:51:33;;;;;;;6.10;2.90;;;5.90;80.80;;;;;;5026525;28;20033;-49
2021/01/27 05:54:00;;;;;;;7.72;2.90;;;5.90;80.70;;;;;;5017711;28;20511;-50
2021/01/27 05:56:28;;;;;;;5.30;2.75;;;5.90;80.80;;;;;;5035030;28;20359;-50
2021/01/27 05:58:54;;;;;;;4.45;3.22;;;5.90;80.80;;;;;;5030461;28;20034;-50
2021/01/27 06:01:25;;;;;;;5.53;2.63;;;5.90;80.80;;;;;;5023554;28;20025;-50
2021/01/27 06:03:51;;;;;;;5.75;3.20;;;5.90;80.80;;;;;;5029891;28;20026;-50
2021/01/27 06:06:17;;;;;;;6.25;3.13;;;5.90;80.80;;;;;;5024091;28;20033;-49
2021/01/27 06:08:49;;;;;;;5.65;3.08;;;5.90;80.80;;;;;;5017177;28;20363;-49
2021/01/27 06:11:15;;;;;;;5.00;2.80;;;5.90;80.80;;;;;;5015817;28;20378;-49
2021/01/27 06:13:41;;;;;;;9.18;3.80;;;5.90;80.70;;;;;;5025302;28;20053;-49
2021/01/27 06:16:33;;;;;;;5.03;2.58;;;5.90;80.70;;;;;;5029329;28;20448;-50
2021/01/27 06:19:09;;;;;;;4.78;3.10;;;5.90;80.70;;;;;;5024175;28;20355;-50
2021/01/27 06:21:38;;;;;;;5.63;3.72;;;5.80;80.70;;;;;;5024688;28;20022;-50
2021/01/27 06:24:27;;;;;;;4.60;2.70;;;5.80;80.70;;;;;;5022133;28;20078;-49
2021/01/27 06:27:04;;;;;;;11.43;3.83;;;5.90;79.60;;;;;;5045022;28;20034;-49
2021/01/27 06:29:41;;;;;;;15.35;4.35;;;5.70;78.70;;;;;;5022428;28;20033;-50
2021/01/27 06:32:31;;;;;;;6.28;3.75;;;5.70;79.60;;;;;;5023651;28;20431;-50
2021/01/27 06:35:28;;;;;;;11.98;5.13;;;5.70;79.80;;;;;;5024764;28;20037;-49
2021/01/27 06:38:31;;;;;;;8.38;4.13;;;5.70;79.60;;;;;;5030942;28;20471;-49
2021/01/27 06:41:19;;;;;;;9.82;3.65;;;5.70;79.40;;;;;;5024511;28;20045;-50
2021/01/27 06:44:07;;;;;;;6.43;3.58;;;5.70;79.20;;;;;;5023404;28;20026;-49
2021/01/27 06:46:55;;;;;;;7.05;4.00;;;5.70;79.10;;;;;;5022613;28;20025;-50
2021/01/27 06:49:56;;;;;;;5.03;3.28;;;5.70;79.10;;;;;;5022682;28;20660;-50
2021/01/27 06:52:52;;;;;;;7.72;2.78;;;5.70;79.00;;;;;;5027972;28;20068;-49
2021/01/27 06:55:47;;;;;;;8.10;3.38;;;5.80;79.00;;;;;;5022322;28;20358;-49
2021/01/27 06:58:52;;;;;;;5.10;3.22;;;5.80;78.90;;;;;;5023941;28;20048;-49
2021/01/27 07:01:30;;;;;;;6.22;3.45;;;5.80;78.80;;;;;;5015560;28;20026;-49
2021/01/27 07:04:19;;;;;;;5.10;2.95;;;5.80;78.70;;;;;;5024499;28;20049;-49
2021/01/27 07:07:03;;;;;;;6.88;3.03;;;5.80;78.70;;;;;;5028051;28;20053;-49
2021/01/27 07:09:28;;;;;;;4.57;3.28;;;5.80;78.70;;;;;;5033177;28;20033;-49
2021/01/27 07:12:12;;;;;;;2.88;2.05;;;5.80;78.70;;;;;;5022788;28;20025;-50
2021/01/27 07:15:00;;;;;;;7.35;3.83;;;5.80;78.70;;;;;;5023804;28;20474;-49
2021/01/27 07:17:46;;;;;;;4.78;2.75;;;5.80;78.70;;;;;;5013811;28;20112;-49
2021/01/27 07:20:22;;;;;;;5.78;3.20;;;5.80;78.70;;;;;;5013760;28;20034;-49
2021/01/27 07:22:48;;;;;;;5.05;3.45;;;5.80;78.70;;;;;;5032563;28;20033;-50
2021/01/27 07:25:20;;;;;;;12.25;3.67;;;5.80;78.80;;;;;;5029635;28;20037;-50
2021/01/27 07:28:10;;;;;;;5.95;3.17;;;5.80;78.70;;;;;;5033663;28;20059;-49
2021/01/27 07:30:57;;;;;;;15.10;3.75;;;5.80;78.80;;;;;;5033282;28;20033;-49
2021/01/27 07:33:37;;;;;;;9.10;3.03;;;5.90;78.80;;;;;;5032408;28;20036;-49
2021/01/27 07:36:12;;;;;;;6.47;3.70;;;5.90;78.70;;;;;;5014770;28;20045;-49
2021/01/27 07:38:40;;;;;;;5.40;3.35;;;5.90;78.70;;;;;;5033041;28;20045;-49
2021/01/27 07:41:11;;;;;;;5.60;3.63;;;5.90;78.70;;;;;;5014959;28;20026;-49
2021/01/27 07:43:42;;;;;;;5.78;2.92;;;5.90;78.70;;;;;;5017419;28;20247;-49
2021/01/27 07:46:11;;;;;;;6.63;3.30;;;5.90;78.70;;;;;;5019308;28;20040;-49
2021/01/27 07:48:51;;;;;;;9.68;2.97;;;5.90;78.60;;;;;;5013368;28;20779;-49
2021/01/27 07:51:19;;;;;;;5.15;2.20;;;5.90;78.60;;;;;;5013466;28;20026;-49
2021/01/27 07:54:08;;;;;;;9.00;3.50;;;5.90;78.60;;;;;;5012519;28;20363;-49
2021/01/27 07:56:52;;;;;;;3.45;2.30;;;6.00;78.70;;;;;;5012753;28;20072;-49
2021/01/27 07:59:50;;;;;;;3.88;1.10;;;5.90;78.50;;;;;;5014408;28;20029;-49
2021/01/27 08:02:24;;;;;;;5.30;2.45;;;6.00;78.60;;;;;;5013159;28;20033;-49
2021/01/27 08:04:55;;;;;;;9.55;2.97;;;6.00;78.60;;;;;;5018676;28;20068;-50
2021/01/27 08:07:39;;;;;;;5.88;2.78;;;6.00;78.50;;;;;;5018431;28;20045;-49
2021/01/27 08:10:27;;;;;;;3.05;2.10;;;6.00;78.50;;;;;;5029269;28;20033;-49
2021/01/27 08:12:59;;;;;;;4.95;2.42;;;6.00;78.50;;;;;;5013135;28;20033;-49
2021/01/27 08:15:24;;;;;;;3.58;1.75;;;6.00;78.50;;;;;;5015697;28;20037;-50
2021/01/27 08:17:58;;;;;;;2.35;1.88;;;6.00;78.60;;;;;;5012964;28;20022;-49
2021/01/27 08:20:25;;;;;;;4.82;2.13;;;6.00;78.50;;;;;;5013922;28;20034;-49
2021/01/27 08:22:52;;;;;;;3.20;2.13;;;6.10;78.50;;;;;;5022103;28;20051;-50
2021/01/27 08:25:57;;;;;;;3.30;1.70;;;6.10;78.80;;;;;;5024734;28;20125;-49
2021/01/27 08:28:22;;;;;;;9.77;2.53;;;6.10;78.60;;;;;;5016439;28;20029;-49
2021/01/27 08:31:07;;;;;;;4.82;2.55;;;6.10;78.50;;;;;;5028261;28;20121;-49
2021/01/27 08:33:47;;;;;;;2.60;1.67;;;6.10;78.60;;;;;;5026773;28;20029;-49
2021/01/27 08:36:14;;;;;;;;;;;6.10;78.50;;;;;;5034364;28;20036;-50
2021/01/27 08:38:57;;;;;;;16.20;0.90;;;6.10;78.60;;;;;;5027893;28;20350;-49
2021/01/27 08:41:54;;;;;;;4.05;2.10;;;6.10;78.60;;;;;;5024634;28;20053;-49
2021/01/27 08:44:20;;;;;;;6.05;2.35;;;6.10;78.50;;;;;;5025843;28;20030;-50
2021/01/27 08:46:48;;;;;;;8.15;2.08;;;6.10;78.50;;;;;;5018604;28;20080;-49
2021/01/27 08:49:42;;;;;;;4.28;2.30;;;6.10;78.50;;;;;;5019045;28;20028;-49
2021/01/27 08:52:11;;;;;;;2.67;1.48;;;6.10;78.40;;;;;;5028676;28;20068;-50
2021/01/27 08:54:39;;;;;;;6.95;2.63;;;6.20;78.40;;;;;;5024852;28;20032;-50
2021/01/27 08:57:26;;;;;;;3.85;2.45;;;6.20;78.40;;;;;;5027557;28;20018;-50
2021/01/27 09:00:07;;;;;;;3.22;2.63;;;6.20;78.40;;;;;;5026647;28;20028;-50
2021/01/27 09:02:42;;;;;;;2.90;1.90;;;6.20;78.30;;;;;;5027048;28;20073;-50
2021/01/27 09:05:30;;;;;;;3.13;2.15;;;6.20;78.30;;;;;;5025902;28;20045;-50
2021/01/27 09:08:10;;;;;;;5.70;2.50;;;6.20;78.30;;;;;;5030502;28;20456;-50
2021/01/27 09:10:41;;;;;;;4.70;2.05;;;6.20;78.30;;;;;;5019705;28;20448;-49
2021/01/27 09:13:41;;;;;;;10.05;2.13;;;6.20;78.30;;;;;;5027903;28;20111;-50
2021/01/27 09:16:12;;;;;;;3.20;2.03;;;6.20;78.20;;;;;;5009185;28;20120;-50
2021/01/27 09:18:39;;;;;;;8.02;2.40;;;6.30;78.30;;;;;;5010432;28;20083;-49
2021/01/27 09:21:16;;;;;;;4.28;2.30;;;6.30;78.30;;;;;;5012740;28;20068;-49
2021/01/27 09:23:44;;;;;;;1.13;1.02;;;6.30;78.30;;;;;;5010588;28;20475;-49
2021/01/27 09:26:20;;;;;;;3.22;1.98;;;6.30;78.30;;;;;;4996351;28;21409;-49
2021/01/27 09:28:48;;;;;;;4.60;1.95;;;6.30;78.30;;;;;;5009835;28;20049;-49
2021/01/27 09:31:14;;;;;;;4.53;2.58;;;6.30;78.20;;;;;;5012364;28;20026;-49
2021/01/27 09:33:41;;;;;;;2.55;1.23;;;6.30;78.30;;;;;;5004656;28;20172;-50
2021/01/27 09:36:12;;;;;;;3.80;2.22;;;6.30;78.20;;;;;;5012632;28;20030;-49
2021/01/27 09:38:38;;;;;;;2.33;1.25;;;6.30;78.30;;;;;;5012707;28;20046;-50
2021/01/27 09:41:18;;;;;;;5.00;1.25;;;6.30;78.30;;;;;;5013053;28;20341;-50
2021/01/27 09:43:47;;;;;;;4.05;1.55;;;6.40;78.30;;;;;;5012157;28;20351;-50
2021/01/27 09:46:27;;;;;;;3.45;1.90;;;6.40;78.30;;;;;;5011999;28;20045;-49
2021/01/27 09:49:02;;;;;;;4.97;2.17;;;6.40;78.30;;;;;;5011653;28;20118;-49
2021/01/27 09:51:28;;;;;;;2.50;1.50;;;6.40;78.30;;;;;;5021490;28;20034;-49
2021/01/27 09:54:00;;;;;;;4.47;2.35;;;6.40;78.30;;;;;;5017989;28;20061;-49
2021/01/27 09:56:27;;;;;;;2.33;2.13;;;6.40;78.30;;;;;;5027011;28;20107;-49
2021/01/27 09:58:53;;;;;;;1.98;1.42;;;6.40;78.30;;;;;;5014092;28;20041;-49
2021/01/27 10:01:25;;;;;;;2.10;1.90;;;6.40;78.30;;;;;;5014694;28;20483;-49
2021/01/27 10:03:54;;;;;;;1.73;1.35;;;6.40;78.10;;;;;;5020879;28;20032;-49
2021/01/27 10:06:35;;;;;;;3.78;1.55;;;6.40;78.20;;;;;;5025429;28;20040;-50
2021/01/27 10:09:01;;;;;;;;;;;6.40;78.30;;;;;;5034391;28;20029;-49
2021/01/27 10:11:33;;;;;;;3.30;1.80;;;6.40;78.30;;;;;;5034207;28;19905;-49
2021/01/27 10:14:22;;;;;;;5.22;1.92;;;6.40;78.20;;;;;;5030958;28;20057;-49
2021/01/27 10:16:52;;;;;;;3.35;1.65;;;6.40;78.30;;;;;;5026194;28;20168;-49
2021/01/27 10:19:30;;;;;;;4.25;2.72;;;6.50;78.30;;;;;;5028099;28;20026;-50
2021/01/27 10:21:59;;;;;;;3.35;2.40;;;6.50;78.30;;;;;;5018643;28;20034;-49
2021/01/27 10:24:46;;;;;;;0.45;0.45;;;6.50;78.30;;;;;;5033835;28;20470;-49
2021/01/27 10:27:25;;;;;;;1.55;0.88;;;6.50;78.20;;;;;;5027353;28;20029;-49
2021/01/27 10:29:51;;;;;;;2.30;1.65;;;6.50;78.20;;;;;;5022225;28;20534;-49
2021/01/27 10:32:20;;;;;;;2.50;1.80;;;6.50;78.30;;;;;;5014250;28;20112;-49
2021/01/27 10:34:47;;;;;;;5.53;1.95;;;6.50;78.30;;;;;;5028572;28;20407;-50
2021/01/27 10:37:44;;;;;;;6.72;2.33;;;6.50;78.30;;;;;;5032076;28;20363;-49
2021/01/27 10:40:17;;;;;;;1.98;0.90;;;6.50;78.30;;;;;;5014051;28;20037;-49
2021/01/27 10:42:47;;;;;;;6.38;2.67;;;6.50;78.20;;;;;;5022072;28;20096;-49
2021/01/27 10:45:27;;;;;;;1.42;1.10;;;6.50;78.30;;;;;;5032656;28;20033;-49
2021/01/27 10:48:11;;;;;;;0.20;0.20;;;6.50;78.20;;;;;;5023351;28;20022;-49
2021/01/27 10:50:46;;;;;;;0.35;0.35;;;6.50;78.20;;;;;;5013886;28;20061;-49
2021/01/27 10:53:14;;;;;;;4.82;3.10;;;6.50;78.20;;;;;;5032388;28;20053;-49
2021/01/27 10:55:46;;;;;;;7.68;3.03;;;6.50;78.20;;;;;;5033639;28;20029;-49
2021/01/27 10:58:15;;;;;;;1.60;1.50;;;6.50;78.30;;;;;;5018263;28;20036;-49
2021/01/27 11:00:44;;;;;;;4.93;2.30;;;6.60;78.30;;;;;;5030804;28;20037;-50
2021/01/27 11:03:10;;;;;;;6.40;2.67;;;6.50;78.20;;;;;;5022621;28;20405;-50
2021/01/27 11:05:36;;;;;;;3.15;1.85;;;6.60;78.30;;;;;;5013196;28;20128;-49
2021/01/27 11:08:04;;;;;;;4.43;1.33;;;6.50;78.20;;;;;;5015512;28;20064;-50
2021/01/27 11:10:31;;;;;;;3.50;2.35;;;6.60;78.30;;;;;;5014272;28;20375;-49
2021/01/27 11:12:57;;;;;;;2.78;1.73;;;6.60;78.30;;;;;;5012897;28;20026;-49
2021/01/27 11:15:23;;;;;;;3.05;2.15;;;6.60;78.30;;;;;;5013046;28;20029;-49
2021/01/27 11:17:50;;;;;;;2.97;1.63;;;6.60;78.30;;;;;;5014392;28;20018;-49
2021/01/27 11:20:19;;;;;;;1.95;1.10;;;6.60;78.30;;;;;;5015546;28;20030;-49
2021/01/27 11:22:46;;;;;;;5.75;3.03;;;6.60;78.30;;;;;;5027626;28;20363;-50
2021/01/27 11:25:15;;;;;;;4.90;1.75;;;6.60;78.30;;;;;;5031894;28;20037;-49
2021/01/27 11:27:40;;;;;;;2.85;2.03;;;6.60;78.30;;;;;;5017336;28;20333;-50
2021/01/27 11:30:07;;;;;;;1.35;1.10;;;6.60;79.00;;;;;;5014121;28;20030;-50
2021/01/27 11:32:34;;;;;;;3.92;1.17;;;6.60;78.30;;;;;;5012944;28;20351;-49
2021/01/27 11:35:00;;;;;;;1.00;0.90;;;6.60;78.40;;;;;;5013021;28;20030;-49
2021/01/27 11:37:25;;;;;;;5.22;1.42;;;6.60;78.40;;;;;;5013132;28;20041;-50
2021/01/27 11:39:51;;;;;;;1.98;1.38;;;6.60;78.30;;;;;;5017728;28;20030;-49
2021/01/27 11:42:16;;;;;;;3.97;2.20;;;6.60;78.30;;;;;;5033109;28;20025;-49
2021/01/27 11:44:42;;;;;;;6.00;2.53;;;6.60;78.30;;;;;;5032176;28;20123;-49
2021/01/27 11:47:08;;;;;;;2.58;1.48;;;6.60;78.30;;;;;;5032523;28;20152;-50
2021/01/27 11:49:33;;;;;;;6.30;2.15;;;6.60;78.30;;;;;;5027068;28;20057;-50
2021/01/27 11:52:00;;;;;;;4.78;2.08;;;6.60;78.40;;;;;;5029697;28;20034;-49
2021/01/27 11:54:26;;;;;;;1.70;1.50;;;6.60;78.30;;;;;;5031767;28;20037;-49
2021/01/27 11:56:51;;;;;;;2.22;1.38;;;6.60;78.30;;;;;;5016214;28;20017;-49
2021/01/27 11:59:17;;;;;;;2.47;1.95;;;6.60;78.30;;;;;;5021760;28;20455;-49
2021/01/27 12:01:43;;;;;;;2.65;1.40;;;6.60;78.40;;;;;;5025213;28;20716;-50
2021/01/27 12:04:09;;;;;;;3.90;1.58;;;6.70;78.40;;;;;;5033650;28;20286;-49
2021/01/27 12:06:34;;;;;;;2.63;1.15;;;6.70;78.40;;;;;;5036028;28;20410;-50
2021/01/27 12:09:00;;;;;;;0.80;0.80;;;6.60;78.50;;;;;;5034001;28;20323;-50
2021/01/27 12:11:25;;;;;;;1.60;1.30;;;6.60;78.50;;;;;;5026179;28;20451;-49
2021/01/27 12:13:51;;;;;;;1.17;0.95;;;6.60;78.40;;;;;;5036322;28;20036;-50
2021/01/27 12:16:17;;;;;;;6.28;1.88;;;6.60;78.40;;;;;;5035042;28;20021;-50
2021/01/27 12:18:43;;;;;;;1.33;1.23;;;6.60;78.30;;;;;;5027528;28;20406;-49
2021/01/27 12:21:09;;;;;;;2.33;1.52;;;6.60;78.20;;;;;;5025489;28;20040;-50
2021/01/27 12:23:35;;;;;;;2.67;2.00;;;6.60;78.10;;;;;;5026579;28;20021;-50
2021/01/27 12:26:01;;;;;;;3.97;1.73;;;6.60;78.10;;;;;;5019520;28;20037;-50
2021/01/27 12:28:26;;;;;;;1.60;1.50;;;6.60;78.00;;;;;;5016389;28;20029;-50
2021/01/27 12:30:52;;;;;;;2.85;1.67;;;6.60;78.10;;;;;;5015005;28;20018;-50
2021/01/27 12:33:18;;;;;;;3.45;1.70;;;6.60;78.00;;;;;;5015832;28;20463;-50
2021/01/27 12:35:43;;;;;;;2.45;1.35;;;6.60;78.00;;;;;;5016385;28;20030;-50
2021/01/27 12:38:09;;;;;;;3.22;1.25;;;6.60;78.00;;;;;;5016529;28;20096;-50
2021/01/27 12:40:35;;;;;;;3.88;1.80;;;6.60;78.00;;;;;;5032787;28;20053;-50
2021/01/27 12:43:00;;;;;;;3.28;1.77;;;6.70;78.10;;;;;;5024109;28;20038;-50
2021/01/27 12:45:28;;;;;;;1.52;1.40;;;6.70;78.00;;;;;;5034848;28;20033;-50
2021/01/27 12:47:54;;;;;;;3.65;1.55;;;6.70;78.00;;;;;;5032806;28;20067;-50
2021/01/27 12:50:21;;;;;;;1.10;1.00;;;6.70;78.00;;;;;;5023898;28;20046;-50
2021/01/27 12:52:47;;;;;;;0.75;0.68;;;6.70;78.00;;;;;;5017546;28;20057;-50
2021/01/27 12:55:15;;;;;;;7.45;1.42;;;6.70;78.00;;;;;;5017516;28;20069;-50
2021/01/27 12:57:44;;;;;;;3.00;1.38;;;6.70;78.00;;;;;;5015557;28;20113;-50
2021/01/27 13:00:15;;;;;;;3.13;1.40;;;6.70;78.00;;;;;;5023514;28;20022;-50
2021/01/27 13:02:41;;;;;;;0.75;0.70;;;6.70;78.00;;;;;;5018347;28;20313;-50
2021/01/27 13:05:07;;;;;;;2.95;1.50;;;6.80;78.20;;;;;;5024712;28;20065;-50
2021/01/27 13:07:33;;;;;;;1.58;1.15;;;6.70;78.20;;;;;;5033742;28;20032;-50
2021/01/27 13:09:58;;;;;;;3.60;1.65;;;6.80;78.30;;;;;;5035640;28;20026;-50
2021/01/27 13:12:25;;;;;;;2.88;1.65;;;6.70;78.20;;;;;;5015120;28;20061;-50
2021/01/27 13:14:51;;;;;;;2.85;1.60;;;6.80;78.20;;;;;;5019537;28;20021;-50
2021/01/27 13:17:18;;;;;;;3.25;1.85;;;6.80;78.20;;;;;;5035361;28;20558;-50
2021/01/27 13:19:43;;;;;;;3.28;1.85;;;6.80;78.20;;;;;;5035039;28;20455;-50
2021/01/27 13:22:09;;;;;;;2.47;1.38;;;6.80;78.10;;;;;;5034529;28;20037;-50
2021/01/27 13:24:35;;;;;;;0.80;0.65;;;6.80;78.80;;;;;;5035101;28;20025;-50
2021/01/27 13:27:00;;;;;;;0.20;0.20;;;6.80;78.10;;;;;;5033629;28;20025;-50